Terminal Aerodrome Forecast
Issued by NWS

Home | Current Version | Previous Version | Text Only | Print | Product List | Glossary On
Versions: 1 2 3 4 5 6 7 8 9 10 11 12 13 14 15 16 17 18 19 20 21 22 23 24 25
304
FTUS46 KLOX 242327 AAA
TAFOXR
TAF AMD
KOXR 242327Z 2423/2524 27014KT P6SM BKN014 BKN090
     FM250400 30010KT P6SM BKN070
     FM250800 30008KT P6SM VCSH OVC070
     FM251000 VRB03KT P6SM VCSH BKN025 OVC050
     FM251500 VRB03KT P6SM SCT030
     FM251800 28014KT P6SM BKN030 BKN050
     FM252100 28017G25KT P6SM SCT050=

USA.gov is the U.S. government's official web portal to all federal, state and local government web resources and services.